TimeCDT,TemperatureF,Dew PointF,Humidity,Sea Level PressureIn,VisibilityMPH,Wind Direction,Wind SpeedMPH,Gust SpeedMPH,PrecipitationIn,Events,Conditions,WindDirDegrees,DateUTC
12:53 AM,37.0,30.9,79,30.39,10.0,North,11.5,-,N/A,,Clear,10,2012-10-07 05:53:00
2:53 AM,39.0,33.1,79,30.37,10.0,NNE,11.5,-,N/A,,Clear,20,2012-10-07 07:53:00
3:53 AM,39.0,32.0,76,30.37,10.0,North,11.5,-,N/A,,Scattered Clouds,10,2012-10-07 08:53:00
4:53 AM,39.0,32.0,76,30.34,10.0,NNE,16.1,-,N/A,,Overcast,20,2012-10-07 09:53:00
5:53 AM,37.9,30.9,76,30.35,10.0,NNE,12.7,-,N/A,,Mostly Cloudy,20,2012-10-07 10:53:00
6:53 AM,35.1,30.9,85,30.35,10.0,North,11.5,-,N/A,,Clear,10,2012-10-07 11:53:00
7:53 AM,35.1,30.9,85,30.38,10.0,North,8.1,-,N/A,,Clear,10,2012-10-07 12:53:00
8:53 AM,39.9,32.0,73,30.36,10.0,NNE,17.3,-,N/A,,Clear,30,2012-10-07 13:53:00
9:53 AM,43.0,30.0,60,30.38,10.0,NE,11.5,-,N/A,,Clear,50,2012-10-07 14:53:00
10:53 AM,43.0,30.9,62,30.36,10.0,NNE,12.7,-,N/A,,Clear,30,2012-10-07 15:53:00
12:53 PM,45.0,28.0,52,30.36,10.0,ENE,6.9,-,N/A,,Mostly Cloudy,60,2012-10-07 17:53:00
1:53 PM,46.0,28.0,50,30.33,10.0,Variable,3.5,-,N/A,,Overcast,0,2012-10-07 18:53:00
2:53 PM,46.0,28.0,50,30.29,10.0,NNE,8.1,-,N/A,,Overcast,30,2012-10-07 19:53:00
3:53 PM,46.9,27.0,46,30.28,10.0,NE,5.8,-,N/A,,Overcast,50,2012-10-07 20:53:00
4:53 PM,46.9,27.0,46,30.26,10.0,Variable,5.8,-,N/A,,Overcast,0,2012-10-07 21:53:00
5:53 PM,46.9,27.0,46,30.25,10.0,ESE,9.2,-,N/A,,Overcast,110,2012-10-07 22:53:00
6:53 PM,46.0,27.0,47,30.25,10.0,Variable,5.8,-,N/A,,Overcast,0,2012-10-07 23:53:00
7:53 PM,41.0,30.0,65,30.26,10.0,ESE,5.8,-,N/A,,Partly Cloudy,120,2012-10-08 00:53:00
8:53 PM,39.9,30.0,68,30.26,10.0,ESE,8.1,-,N/A,,Clear,120,2012-10-08 01:53:00
9:53 PM,36.0,28.9,76,30.27,10.0,ESE,5.8,-,N/A,,Clear,110,2012-10-08 02:53:00
10:53 PM,36.0,28.9,76,30.27,10.0,ESE,5.8,-,N/A,,Clear,110,2012-10-08 03:53:00
11:53 PM,35.1,28.9,78,30.25,10.0,Calm,Calm,-,N/A,,Clear,0,2012-10-08 04:53:00